Time;durP1;ratioP1;P1;durP2;ratioP2;P2;SDS_P1;SDS_P2;PMS_P1;PMS_P2;Temp;Humidity;BMP_temperature;BMP_pressure;BME280_temperature;BME280_humidity;BME280_pressure;Samples;Min_cycle;Max_cycle;Signal;HPM_P1;HPM_P2
2022/10/10 00:00:22;;;;;;;8.90;5.00;;;;;;;11.56;68.28;100083.25;5075386;28;20173;-56
2022/10/10 00:02:48;;;;;;;8.02;3.88;;;;;;;11.54;67.96;100098.59;5074769;28;20501;-56
2022/10/10 00:05:13;;;;;;;8.02;3.70;;;;;;;11.48;68.37;100086.53;5074424;28;20513;-56
2022/10/10 00:07:39;;;;;;;5.78;3.67;;;;;;;11.46;68.18;100091.16;5075180;28;20119;-54
2022/10/10 00:10:05;;;;;;;8.70;4.70;;;;;;;11.40;68.32;100080.94;5074206;28;20040;-58
2022/10/10 00:12:30;;;;;;;10.07;4.97;;;;;;;11.45;68.22;100092.16;5073750;28;20031;-54
2022/10/10 00:14:56;;;;;;;7.72;4.45;;;;;;;11.45;68.28;100092.16;5075100;28;20157;-61
2022/10/10 00:17:21;;;;;;;8.73;5.57;;;;;;;11.45;68.11;100101.06;5074624;28;20029;-53
2022/10/10 00:19:46;;;;;;;10.88;5.82;;;;;;;11.48;68.37;100094.59;5073712;28;20032;-55
2022/10/10 00:22:12;;;;;;;8.15;4.07;;;;;;;11.46;68.24;100096.53;5074360;28;20408;-54
2022/10/10 00:24:37;;;;;;;5.85;4.18;;;;;;;11.43;68.24;100086.06;5074294;28;20393;-55
2022/10/10 00:27:03;;;;;;;9.80;4.20;;;;;;;11.38;68.11;100093.63;5074808;28;20087;-57
2022/10/10 00:29:28;;;;;;;7.63;3.80;;;;;;;11.38;68.22;100101.66;5074532;28;20047;-58
2022/10/10 00:31:54;;;;;;;14.27;5.47;;;;;;;11.37;68.38;100110.69;5074742;28;20559;-55
2022/10/10 00:34:19;;;;;;;9.48;4.93;;;;;;;11.39;68.28;100111.41;5074386;28;20489;-52
2022/10/10 00:36:44;;;;;;;8.38;4.88;;;;;;;11.40;68.00;100118.47;5074272;28;20024;-54
2022/10/10 00:39:10;;;;;;;7.82;3.65;;;;;;;11.27;67.87;100098.00;5073187;28;20115;-55
2022/10/10 00:41:35;;;;;;;7.78;4.15;;;;;;;11.36;67.62;100122.38;5074140;28;20109;-57
2022/10/10 00:44:03;;;;;;;8.18;3.97;;;;;;;11.38;68.04;100133.84;5073042;28;20024;-56
2022/10/10 00:46:29;;;;;;;7.47;4.55;;;;;;;11.37;67.81;100132.97;5074197;28;20032;-57
2022/10/10 00:48:55;;;;;;;4.68;2.95;;;;;;;11.36;67.87;100130.44;5074338;28;20119;-56
2022/10/10 00:51:20;;;;;;;7.57;3.90;;;;;;;11.34;68.16;100123.38;5072949;28;20075;-58
2022/10/10 00:54:13;;;;;;;8.73;4.20;;;;;;;11.49;68.24;100134.69;5073678;28;20077;-58
2022/10/10 00:57:03;;;;;;;8.00;4.65;;;;;;;11.47;68.01;100127.72;5071883;28;20040;-52
2022/10/10 00:59:32;;;;;;;5.68;3.47;;;;;;;11.39;67.61;100122.97;5074013;28;20028;-60
2022/10/10 01:01:58;;;;;;;3.85;2.40;;;;;;;11.31;67.71;100128.94;5074132;28;20466;-58
2022/10/10 01:04:45;;;;;;;12.40;4.68;;;;;;;11.39;67.57;100133.69;5073815;28;20470;-57
2022/10/10 01:07:20;;;;;;;6.60;3.05;;;;;;;11.34;66.71;100146.63;5073885;28;20431;-55
2022/10/10 01:09:49;;;;;;;5.60;3.58;;;;;;;11.19;66.28;100146.00;5072376;28;20047;-57
2022/10/10 01:12:36;;;;;;;7.50;3.60;;;;;;;11.22;66.39;100151.13;5073771;28;20044;-54
2022/10/10 01:15:22;;;;;;;4.80;2.40;;;;;;;11.14;66.55;100140.16;5073796;28;20032;-56
2022/10/10 01:17:57;;;;;;;10.18;4.18;;;;;;;11.09;66.75;100148.53;5073390;28;20032;-56
2022/10/10 01:20:49;;;;;;;8.80;4.45;;;;;;;11.11;66.36;100148.44;5072977;28;20039;-54
2022/10/10 01:23:44;;;;;;;5.38;2.05;;;;;;;11.06;66.73;100154.16;5073598;28;20040;-55
2022/10/10 01:26:21;;;;;;;5.43;2.00;;;;;;;10.99;67.08;100152.91;5053475;28;20032;-56
2022/10/10 01:28:47;;;;;;;5.88;3.25;;;;;;;10.91;66.61;100161.53;5053355;28;20359;-56
2022/10/10 01:31:14;;;;;;;6.20;3.10;;;;;;;10.81;66.78;100142.66;5053485;28;20047;-55
2022/10/10 01:33:47;;;;;;;9.30;4.60;;;;;;;10.99;66.64;100167.16;5053583;28;20121;-54
2022/10/10 01:36:21;;;;;;;5.93;2.90;;;;;;;10.98;66.71;100173.47;5064067;28;20032;-55
2022/10/10 01:39:06;;;;;;;4.82;3.22;;;;;;;10.98;66.57;100173.47;5073226;28;20114;-59
2022/10/10 01:41:40;;;;;;;4.18;2.42;;;;;;;11.05;66.40;100188.09;5073392;28;20382;-55
2022/10/10 01:44:05;;;;;;;5.38;2.40;;;;;;;11.01;66.05;100175.09;5072650;28;20044;-58
2022/10/10 01:46:31;;;;;;;8.65;4.88;;;;;;;11.04;65.89;100183.72;5073394;28;20036;-58
2022/10/10 01:48:58;;;;;;;10.48;4.88;;;;;;;11.00;66.20;100184.94;5073111;28;20377;-55
2022/10/10 01:51:39;;;;;;;8.23;3.80;;;;;;;11.11;66.07;100204.72;5073143;28;20048;-55
2022/10/10 01:54:32;;;;;;;11.52;4.85;;;;;;;11.17;65.96;100207.75;5072794;28;20033;-53
2022/10/10 01:57:16;;;;;;;4.05;2.35;;;;;;;11.13;65.71;100214.31;5073085;28;20458;-53
2022/10/10 01:59:57;;;;;;;7.40;2.92;;;;;;;11.00;65.60;100216.25;5072516;28;20036;-56
2022/10/10 02:02:31;;;;;;;10.10;3.97;;;;;;;11.00;65.66;100217.09;5073033;28;20044;-55
2022/10/10 02:05:07;;;;;;;7.68;2.70;;;;;;;10.94;65.36;100214.88;5072933;28;20028;-55
2022/10/10 02:07:58;;;;;;;6.45;2.58;;;;;;;10.97;65.32;100214.66;5072781;28;20028;-53
2022/10/10 02:10:29;;;;;;;6.45;3.72;;;;;;;10.84;65.55;100214.72;5065508;28;20719;-53
2022/10/10 02:12:57;;;;;;;9.07;3.78;;;;;;;10.85;65.60;100215.56;5072888;28;20054;-54
2022/10/10 02:15:27;;;;;;;6.18;2.90;;;;;;;10.84;65.39;100224.56;5072391;28;20028;-52
2022/10/10 02:17:55;;;;;;;6.25;3.05;;;;;;;10.83;65.47;100233.56;5071825;28;20060;-56
2022/10/10 02:20:24;;;;;;;6.22;3.33;;;;;;;10.84;65.51;100236.16;5072584;28;20024;-54
2022/10/10 02:22:50;;;;;;;5.72;3.05;;;;;;;10.81;65.70;100241.75;5072005;28;20058;-51
2022/10/10 02:25:21;;;;;;;8.32;4.38;;;;;;;10.82;65.85;100245.25;5072539;28;20059;-54
2022/10/10 02:28:09;;;;;;;4.20;2.53;;;;;;;10.89;65.85;100249.22;5072455;28;20058;-54
2022/10/10 02:30:40;;;;;;;7.97;3.88;;;;;;;10.81;65.61;100257.81;5072296;28;20526;-54
2022/10/10 02:33:07;;;;;;;5.68;2.70;;;;;;;10.79;65.73;100264.25;5072142;28;20073;-55
2022/10/10 02:35:39;;;;;;;8.85;4.18;;;;;;;10.84;65.65;100260.25;5072357;28;20032;-57
2022/10/10 02:38:08;;;;;;;5.93;2.53;;;;;;;10.83;65.91;100263.03;5072071;28;20031;-56
2022/10/10 02:40:35;;;;;;;11.68;4.15;;;;;;;10.81;65.62;100255.13;5072335;28;20117;-59
2022/10/10 02:43:05;;;;;;;11.32;5.93;;;;;;;10.74;66.07;100249.38;5072618;28;20028;-52
2022/10/10 02:45:32;;;;;;;7.20;3.20;;;;;;;10.83;65.55;100265.72;5072525;28;20111;-54
2022/10/10 02:47:59;;;;;;;6.18;2.95;;;;;;;10.85;65.37;100261.09;5070994;28;20362;-55
2022/10/10 02:50:26;;;;;;;7.57;3.58;;;;;;;10.67;65.70;100244.59;5071716;28;20052;-52
2022/10/10 02:52:51;;;;;;;13.25;6.25;;;;;;;10.76;66.15;100262.66;5071929;28;20427;-54
2022/10/10 02:55:17;;;;;;;8.13;4.18;;;;;;;10.76;66.08;100255.47;5072193;28;20035;-56
2022/10/10 02:57:42;;;;;;;4.25;2.85;;;;;;;10.82;65.97;100270.25;5071847;28;20025;-56
2022/10/10 03:00:09;;;;;;;6.25;2.35;;;;;;;10.82;66.24;100269.38;5070514;28;20040;-49
2022/10/10 03:02:34;;;;;;;6.53;3.13;;;;;;;10.82;66.08;100269.38;5072512;28;20363;-54
2022/10/10 03:04:59;;;;;;;5.90;3.15;;;;;;;10.83;65.89;100277.31;5072148;28;20028;-55
2022/10/10 03:07:25;;;;;;;5.10;2.30;;;;;;;10.77;66.45;100273.25;5071999;28;20029;-54
2022/10/10 03:09:51;;;;;;;6.57;3.30;;;;;;;10.82;66.46;100285.44;5072213;28;20039;-56
2022/10/10 03:12:17;;;;;;;6.43;3.85;;;;;;;10.79;66.44;100280.31;5071667;28;20032;-57
2022/10/10 03:14:42;;;;;;;10.43;4.72;;;;;;;10.80;66.33;100287.38;5071753;28;20028;-57
2022/10/10 03:17:08;;;;;;;9.23;3.83;;;;;;;10.79;66.29;100280.31;5072152;28;20055;-55
2022/10/10 03:19:34;;;;;;;5.68;3.03;;;;;;;10.80;66.40;100271.31;5072072;28;20347;-56
2022/10/10 03:21:59;;;;;;;9.38;4.88;;;;;;;10.82;66.58;100280.09;5071770;28;20379;-51
2022/10/10 03:24:25;;;;;;;6.80;4.10;;;;;;;10.82;66.36;100285.44;5071289;28;20112;-52
2022/10/10 03:26:50;;;;;;;8.05;3.78;;;;;;;10.80;66.59;100284.69;5072045;28;20770;-56
2022/10/10 03:29:16;;;;;;;6.97;2.97;;;;;;;10.78;66.44;100282.16;5071920;28;20037;-57
2022/10/10 03:31:42;;;;;;;6.15;3.70;;;;;;;10.76;66.67;100292.13;5070686;28;20032;-55
2022/10/10 03:34:07;;;;;;;6.47;3.70;;;;;;;10.77;66.60;100293.84;5071486;28;20040;-56
2022/10/10 03:36:33;;;;;;;9.00;4.70;;;;;;;10.76;66.79;100298.31;5072275;28;20389;-55
2022/10/10 03:38:58;;;;;;;9.25;4.35;;;;;;;10.76;66.89;100313.56;5071620;28;20036;-54
2022/10/10 03:41:24;;;;;;;5.88;3.83;;;;;;;10.75;66.77;100318.03;5071366;28;20037;-52
2022/10/10 03:43:49;;;;;;;8.18;4.57;;;;;;;10.76;66.58;100325.09;5071855;28;20443;-56
2022/10/10 03:46:15;;;;;;;10.30;3.53;;;;;;;10.61;66.28;100291.44;5075298;28;20347;-57
2022/10/10 03:48:40;;;;;;;7.15;3.30;;;;;;;10.69;66.60;100323.84;5075002;28;20064;-56
2022/10/10 03:51:06;;;;;;;7.97;4.30;;;;;;;10.71;66.97;100329.94;5074121;28;20060;-49
2022/10/10 03:53:31;;;;;;;3.83;2.20;;;;;;;10.90;65.28;100336.63;5074862;28;20455;-54
2022/10/10 03:55:57;;;;;;;9.38;3.45;;;;;;;10.79;65.76;100339.25;5075068;28;20140;-53
2022/10/10 03:58:22;;;;;;;5.97;3.05;;;;;;;10.66;65.90;100337.47;5075350;28;20025;-52
2022/10/10 04:00:59;;;;;;;6.72;2.90;;;;;;;10.73;66.18;100351.25;5074682;28;20036;-59
2022/10/10 04:03:25;;;;;;;7.97;4.32;;;;;;;10.63;66.35;100356.44;5074724;28;20115;-55
2022/10/10 04:05:51;;;;;;;10.55;4.93;;;;;;;10.61;66.37;100353.03;5074996;28;20066;-54
2022/10/10 04:08:17;;;;;;;6.68;3.35;;;;;;;10.64;66.66;100352.81;5074751;28;20410;-57
2022/10/10 04:10:43;;;;;;;6.40;3.33;;;;;;;10.59;66.38;100346.91;5074926;28;20028;-54
2022/10/10 04:13:08;;;;;;;5.90;3.00;;;;;;;10.63;65.40;100356.44;5074038;28;20028;-55
2022/10/10 04:15:34;;;;;;;7.00;3.00;;;;;;;10.70;65.55;100363.06;5075146;28;20051;-57
2022/10/10 04:17:59;;;;;;;10.68;3.38;;;;;;;10.57;65.51;100335.44;5074873;28;20107;-54
2022/10/10 04:20:25;;;;;;;4.97;2.65;;;;;;;10.79;65.38;100368.69;5074462;28;20036;-55
2022/10/10 04:22:50;;;;;;;7.28;3.25;;;;;;;10.78;65.40;100367.88;5074605;28;20039;-50
2022/10/10 04:25:16;;;;;;;5.22;3.40;;;;;;;10.82;65.01;100380.06;5074577;28;20440;-57
2022/10/10 04:27:45;;;;;;;10.63;3.83;;;;;;;10.73;65.29;100357.47;5074200;28;20024;-55
2022/10/10 04:30:11;;;;;;;5.93;2.90;;;;;;;10.84;64.94;100382.59;5074371;28;20043;-58
2022/10/10 04:32:37;;;;;;;8.68;4.07;;;;;;;10.81;65.23;100380.16;5074720;28;20035;-61
2022/10/10 04:35:03;;;;;;;6.30;3.10;;;;;;;10.80;65.08;100384.66;5074447;28;20104;-60
2022/10/10 04:37:29;;;;;;;17.35;5.93;;;;;;;10.79;65.36;100384.78;5074280;28;20062;-68
2022/10/10 04:39:54;;;;;;;6.47;3.72;;;;;;;10.80;65.20;100394.53;5073916;28;20435;-67
2022/10/10 04:42:20;;;;;;;10.38;4.75;;;;;;;10.74;65.20;100399.34;5073347;28;20097;-56
2022/10/10 04:44:46;;;;;;;8.68;3.72;;;;;;;10.73;64.87;100400.31;5073945;28;20481;-55
2022/10/10 04:47:12;;;;;;;13.55;5.15;;;;;;;10.76;65.21;100408.13;5059293;28;20103;-60
2022/10/10 04:49:37;;;;;;;8.93;4.03;;;;;;;10.76;65.36;100415.34;5054409;28;20056;-56
2022/10/10 04:52:03;;;;;;;10.40;5.03;;;;;;;10.66;64.92;100380.31;5055908;28;20084;-59
2022/10/10 04:54:29;;;;;;;5.25;3.00;;;;;;;10.84;65.18;100417.44;5074150;28;20461;-56
2022/10/10 04:56:54;;;;;;;9.68;5.47;;;;;;;10.84;65.10;100418.31;5072847;28;20391;-56
2022/10/10 04:59:19;;;;;;;11.55;4.63;;;;;;;10.93;64.96;100421.28;5073292;28;20470;-56
2022/10/10 05:01:45;;;;;;;7.75;4.15;;;;;;;10.97;64.27;100428.09;5072449;28;20470;-56
2022/10/10 05:04:12;;;;;;;9.85;4.57;;;;;;;11.01;64.31;100425.09;5074024;28;20050;-55
2022/10/10 05:06:37;;;;;;;6.55;3.40;;;;;;;11.01;63.20;100433.16;5073981;28;20038;-57
2022/10/10 05:09:02;;;;;;;8.25;4.00;;;;;;;11.08;63.03;100446.09;5073426;28;20032;-57
2022/10/10 05:11:28;;;;;;;13.15;4.55;;;;;;;11.19;62.78;100443.50;5073543;28;20328;-65
2022/10/10 05:13:53;;;;;;;7.22;3.08;;;;;;;11.29;61.81;100435.63;5073602;28;20032;-66
2022/10/10 05:16:19;;;;;;;8.77;4.00;;;;;;;11.47;61.63;100449.50;5073785;28;20467;-66
2022/10/10 05:18:44;;;;;;;8.70;4.25;;;;;;;11.69;60.34;100446.03;5072305;28;20050;-66
2022/10/10 05:21:10;;;;;;;10.10;3.45;;;;;;;11.77;59.63;100443.66;5073050;28;20059;-66
2022/10/10 05:23:37;;;;;;;8.63;2.88;;;;;;;11.87;59.51;100462.59;5056002;28;20025;-65
2022/10/10 05:26:03;;;;;;;11.10;4.38;;;;;;;12.08;58.80;100459.28;5073414;28;20362;-66
2022/10/10 05:28:29;;;;;;;5.88;3.70;;;;;;;13.78;54.67;100454.75;5073191;28;20046;-66
2022/10/10 05:30:55;;;;;;;7.93;3.38;;;;;;;15.40;50.08;100454.22;5072900;28;20111;-65
2022/10/10 05:33:20;;;;;;;9.65;3.35;;;;;;;18.14;44.20;100440.63;5073262;28;20028;-65
2022/10/10 05:35:46;;;;;;;2.88;1.83;;;;;;;21.80;36.60;100424.03;5073257;28;20340;-66
2022/10/10 05:38:11;;;;;;;5.22;3.05;;;;;;;24.33;31.75;100443.13;5071908;28;20052;-65
2022/10/10 05:40:41;;;;;;;4.13;2.83;;;;;;;23.65;32.99;100448.03;5073167;28;20040;-65
2022/10/10 05:43:06;;;;;;;9.32;2.65;;;;;;;22.88;33.21;100446.66;5073081;28;20067;-65
2022/10/10 05:45:32;;;;;;;8.48;2.78;;;;;;;23.31;32.30;100437.78;5072808;28;20052;-65
2022/10/10 05:47:57;;;;;;;4.32;2.42;;;;;;;22.99;32.49;100453.53;5073158;28;20358;-67
2022/10/10 05:50:33;;;;;;;4.15;2.60;;;;;;;21.55;34.88;100455.22;5072647;28;20502;-66
2022/10/10 05:52:58;;;;;;;4.22;2.22;;;;;;;20.86;35.64;100456.78;5073291;28;20050;-66
2022/10/10 05:55:24;;;;;;;3.22;2.50;;;;;;;22.57;32.73;100464.97;5073076;28;20124;-66
2022/10/10 05:57:49;;;;;;;5.32;3.28;;;;;;;23.37;30.99;100453.41;5072392;28;20405;-66
2022/10/10 06:00:15;;;;;;;7.35;3.05;;;;;;;24.59;28.94;100458.03;5073227;28;20063;-66
2022/10/10 06:02:40;;;;;;;5.88;3.17;;;;;;;26.33;26.41;100454.13;5073085;28;20064;-66
2022/10/10 06:05:07;;;;;;;3.88;2.40;;;;;;;27.17;25.20;100446.09;5071774;28;20028;-66
2022/10/10 06:07:33;;;;;;;5.80;2.80;;;;;;;27.07;25.27;100460.31;5071504;28;20029;-65
2022/10/10 06:09:58;;;;;;;4.90;2.55;;;;;;;27.45;24.30;100466.88;5072671;28;20367;-66
2022/10/10 06:12:24;;;;;;;4.80;2.42;;;;;;;27.48;24.00;100462.81;5064947;28;20409;-65
2022/10/10 06:14:49;;;;;;;5.47;2.38;;;;;;;29.28;21.99;100477.94;5072288;28;20033;-66
2022/10/10 06:17:15;;;;;;;5.70;3.45;;;;;;;30.94;20.40;100468.25;5054533;28;20074;-67
2022/10/10 06:19:40;;;;;;;5.57;2.58;;;;;;;31.98;18.69;100481.31;5072291;28;20363;-66
2022/10/10 06:22:06;;;;;;;6.55;3.28;;;;;;;32.63;17.73;100485.38;5071928;28;20521;-67
2022/10/10 06:24:31;;;;;;;5.65;2.80;;;;;;;33.52;17.25;100467.94;5072557;28;20032;-66
2022/10/10 06:26:57;;;;;;;4.45;2.85;;;;;;;34.69;15.86;100484.97;5071246;28;20113;-66
2022/10/10 06:29:22;;;;;;;5.15;3.28;;;;;;;35.57;15.39;100490.91;5071062;28;20036;-66
2022/10/10 06:31:47;;;;;;;3.33;2.38;;;;;;;36.41;14.13;100484.22;5071110;28;20034;-66
2022/10/10 06:34:13;;;;;;;3.55;2.60;;;;;;;36.81;13.60;100467.72;5071453;28;20040;-67
2022/10/10 06:36:38;;;;;;;5.85;3.00;;;;;;;37.51;13.33;100505.09;5071084;28;20032;-67
2022/10/10 06:39:04;;;;;;;9.70;5.88;;;;;;;37.93;12.83;100500.00;5071629;28;20044;-67
2022/10/10 06:41:29;;;;;;;6.60;3.75;;;;;;;38.20;11.89;100502.34;5071424;28;20133;-65
2022/10/10 06:43:55;;;;;;;4.80;3.40;;;;;;;38.20;12.34;100505.13;5072449;28;20044;-66
2022/10/10 06:46:21;;;;;;;10.15;6.80;;;;;;;38.90;11.76;100503.03;5071603;28;20033;-66
2022/10/10 06:48:46;;;;;;;10.02;6.78;;;;;;;39.07;11.58;100507.31;5071643;28;20025;-66
2022/10/10 06:51:14;;;;;;;7.53;5.57;;;;;;;38.59;11.81;100505.34;5071182;28;20048;-65
2022/10/10 06:53:40;;;;;;;8.40;4.72;;;;;;;38.07;12.14;100504.97;5072461;28;20064;-62
2022/10/10 06:56:06;;;;;;;6.05;3.33;;;;;;;38.38;12.04;100505.53;5059244;28;20029;-66
2022/10/10 06:58:32;;;;;;;6.40;3.80;;;;;;;38.87;11.34;100505.56;5071315;28;20039;-65
2022/10/10 07:01:03;;;;;;;5.13;3.63;;;;;;;39.09;11.46;100505.03;5071309;28;20115;-67
2022/10/10 07:03:29;;;;;;;5.32;3.08;;;;;;;38.55;11.72;100507.03;5072372;28;20035;-66
2022/10/10 07:05:59;;;;;;;6.55;3.00;;;;;;;38.40;11.81;100503.25;5071157;28;20040;-70
2022/10/10 07:08:26;;;;;;;4.45;2.53;;;;;;;37.79;11.95;100488.69;5071589;28;20031;-68
2022/10/10 07:10:51;;;;;;;4.32;2.55;;;;;;;37.97;11.75;100491.94;5051697;28;20033;-70
2022/10/10 07:13:17;;;;;;;4.22;2.50;;;;;;;38.15;12.00;100513.56;5052268;28;20039;-68
2022/10/10 07:15:43;;;;;;;8.75;2.65;;;;;;;38.42;11.57;100511.34;5051248;28;20043;-67
2022/10/10 07:18:09;;;;;;;6.03;2.60;;;;;;;38.31;12.04;100505.88;5049716;28;20029;-66
2022/10/10 07:20:35;;;;;;;3.45;2.67;;;;;;;37.59;11.92;100515.63;5053994;28;20049;-67
2022/10/10 07:23:01;;;;;;;4.40;2.47;;;;;;;37.24;12.78;100517.50;5055617;28;20025;-67
2022/10/10 07:25:27;;;;;;;5.97;3.05;;;;;;;37.31;12.77;100506.03;5055780;28;20033;-68
2022/10/10 07:27:53;;;;;;;5.68;2.70;;;;;;;37.48;12.69;100506.44;5055089;28;20064;-67
2022/10/10 07:30:19;;;;;;;5.70;2.40;;;;;;;37.51;12.56;100496.69;5055999;28;20076;-66
2022/10/10 07:32:44;;;;;;;4.35;2.72;;;;;;;36.77;12.90;100508.44;5055747;28;20029;-64
2022/10/10 07:35:11;;;;;;;3.67;2.50;;;;;;;34.80;14.47;100501.72;5054702;28;20289;-69
2022/10/10 07:37:37;;;;;;;4.55;2.60;;;;;;;32.26;16.64;100510.84;5063248;28;20055;-66
2022/10/10 07:40:04;;;;;;;5.03;2.63;;;;;;;28.76;20.06;100523.28;5075509;28;20047;-69
2022/10/10 07:42:30;;;;;;;4.32;2.80;;;;;;;25.38;23.43;100480.56;5075476;28;20047;-67
2022/10/10 07:44:55;;;;;;;6.85;2.75;;;;;;;23.24;26.93;100505.97;5075158;28;20025;-66
2022/10/10 07:47:21;;;;;;;4.25;2.60;;;;;;;21.60;29.51;100512.75;5075845;28;20111;-69
2022/10/10 07:49:47;;;;;;;6.68;2.60;;;;;;;20.01;32.10;100497.00;5075616;28;20037;-67
2022/10/10 07:52:12;;;;;;;9.55;3.30;;;;;;;18.85;34.13;100504.78;5074916;28;20071;-70
2022/10/10 07:54:38;;;;;;;5.38;3.42;;;;;;;18.19;35.91;100519.59;5074057;28;20112;-67
2022/10/10 07:57:04;;;;;;;4.30;2.92;;;;;;;17.43;37.06;100518.97;5074362;28;20079;-67
2022/10/10 07:59:29;;;;;;;6.15;3.25;;;;;;;16.73;38.47;100516.69;5074246;28;20102;-66
2022/10/10 08:01:55;;;;;;;8.52;2.75;;;;;;;16.38;39.40;100524.47;5074849;28;20036;-68
2022/10/10 08:04:20;;;;;;;6.57;2.58;;;;;;;16.05;40.25;100521.22;5075188;28;20059;-68
2022/10/10 08:06:47;;;;;;;4.57;2.95;;;;;;;15.78;40.72;100525.47;5075195;28;20031;-68
2022/10/10 08:09:13;;;;;;;4.13;2.80;;;;;;;15.60;40.69;100534.22;5074942;28;20122;-68
2022/10/10 08:11:38;;;;;;;4.75;2.53;;;;;;;15.32;41.42;100522.41;5074205;28;20107;-67
2022/10/10 08:14:04;;;;;;;7.38;3.03;;;;;;;15.11;42.00;100515.25;5074481;28;20447;-67
2022/10/10 08:16:29;;;;;;;7.20;3.20;;;;;;;14.96;42.96;100511.19;5073600;28;20032;-67
2022/10/10 08:18:55;;;;;;;5.38;3.28;;;;;;;14.87;43.40;100512.84;5073921;28;20118;-68
2022/10/10 08:21:20;;;;;;;7.22;2.97;;;;;;;14.92;43.41;100521.38;5074457;28;20111;-67
2022/10/10 08:23:46;;;;;;;10.75;3.35;;;;;;;14.77;43.78;100519.06;5074597;28;20157;-67
2022/10/10 08:26:14;;;;;;;7.38;3.47;;;;;;;14.70;43.73;100512.44;5074838;28;20033;-67
2022/10/10 08:28:40;;;;;;;13.15;3.45;;;;;;;14.66;43.34;100511.00;5074503;28;20029;-67
2022/10/10 08:31:07;;;;;;;4.20;3.03;;;;;;;14.52;43.60;100500.59;5073398;28;20084;-67
2022/10/10 08:33:33;;;;;;;9.63;3.63;;;;;;;14.60;44.12;100522.34;5074621;28;20029;-67
2022/10/10 08:36:03;;;;;;;6.75;3.88;;;;;;;14.68;43.90;100519.81;5073265;28;20028;-67
2022/10/10 08:38:29;;;;;;;9.45;3.45;;;;;;;14.69;44.16;100518.81;5074611;28;20041;-67
2022/10/10 08:40:56;;;;;;;5.35;3.03;;;;;;;14.45;43.78;100479.56;5074695;28;20336;-67
2022/10/10 08:43:34;;;;;;;5.55;2.40;;;;;;;14.85;42.59;100531.88;5074575;28;20033;-66
2022/10/10 08:46:34;;;;;;;7.88;1.80;;;;;;;14.83;41.76;100530.28;5074226;28;20039;-68
2022/10/10 08:49:11;;;;;;;4.90;2.30;;;;;;;14.72;41.96;100534.78;5070264;28;20044;-67
2022/10/10 08:51:40;;;;;;;4.75;2.08;;;;;;;14.73;42.48;100543.72;5073897;28;20044;-69
2022/10/10 08:54:11;;;;;;;4.80;2.08;;;;;;;14.73;42.41;100535.63;5073301;28;20054;-67
2022/10/10 08:56:38;;;;;;;6.03;2.10;;;;;;;14.61;41.91;100529.44;5074471;28;20044;-67
2022/10/10 08:59:13;;;;;;;5.90;1.90;;;;;;;14.64;41.17;100532.72;5073653;28;20033;-67
2022/10/10 09:01:39;;;;;;;6.45;2.20;;;;;;;14.65;41.45;100530.88;5073822;28;20036;-67
2022/10/10 09:04:11;;;;;;;4.50;1.65;;;;;;;14.59;41.50;100536.78;5074191;28;20355;-67
2022/10/10 09:06:56;;;;;;;3.88;2.17;;;;;;;14.70;41.58;100539.41;5074269;28;20039;-67
2022/10/10 09:09:39;;;;;;;4.07;1.60;;;;;;;14.44;40.90;100507.47;5072853;28;20064;-67
2022/10/10 09:12:25;;;;;;;2.97;1.58;;;;;;;14.65;40.89;100538.94;5072797;28;20362;-67
2022/10/10 09:15:10;;;;;;;3.67;1.90;;;;;;;14.62;40.75;100540.09;5073059;28;20032;-68
2022/10/10 09:17:47;;;;;;;3.70;1.52;;;;;;;14.61;40.52;100546.47;5073488;28;20025;-69
2022/10/10 09:20:21;;;;;;;7.55;1.88;;;;;;;14.60;40.59;100543.91;5072638;28;20032;-68
2022/10/10 09:22:56;;;;;;;2.30;1.50;;;;;;;14.62;40.50;100542.78;5073909;28;20455;-66
2022/10/10 09:25:29;;;;;;;4.38;1.58;;;;;;;14.63;40.26;100549.00;5072865;28;20153;-68
2022/10/10 09:28:07;;;;;;;2.85;1.60;;;;;;;14.37;40.24;100535.94;5073647;28;20079;-66
2022/10/10 09:30:37;;;;;;;5.18;1.63;;;;;;;14.37;40.52;100562.03;5072233;28;20324;-65
2022/10/10 09:33:20;;;;;;;4.10;1.60;;;;;;;14.45;40.50;100557.69;5073490;28;20032;-66
2022/10/10 09:35:48;;;;;;;4.25;1.60;;;;;;;14.38;40.32;100553.81;5072407;28;20040;-67
2022/10/10 09:38:34;;;;;;;3.13;1.05;;;;;;;14.47;38.79;100555.75;5073036;28;20036;-67
2022/10/10 09:41:12;;;;;;;;;;;;;;;14.73;38.48;100558.06;5073357;28;20094;-66
2022/10/10 09:43:38;;;;;;;3.72;1.40;;;;;;;14.48;39.40;100554.75;5072844;28;20350;-67
2022/10/10 09:46:05;;;;;;;2.55;1.23;;;;;;;14.35;39.14;100556.78;5073065;28;20040;-68
2022/10/10 09:48:32;;;;;;;2.90;1.40;;;;;;;14.35;39.31;100562.16;5072843;28;20109;-67
2022/10/10 09:51:01;;;;;;;3.67;1.30;;;;;;;14.07;39.55;100516.03;5072820;28;20037;-67
2022/10/10 09:53:27;;;;;;;1.95;1.02;;;;;;;14.35;39.39;100562.16;5073498;28;20086;-67
2022/10/10 09:55:53;;;;;;;6.03;1.40;;;;;;;14.39;38.71;100547.44;5072563;28;20028;-66
2022/10/10 09:58:24;;;;;;;4.60;1.20;;;;;;;14.47;38.07;100554.88;5071454;28;20032;-67
2022/10/10 10:00:49;;;;;;;1.65;0.90;;;;;;;14.49;38.07;100559.16;5072040;28;20073;-68
2022/10/10 10:03:18;;;;;;;4.07;1.30;;;;;;;14.56;38.29;100566.72;5072014;28;20021;-66
2022/10/10 10:05:56;;;;;;;2.97;1.20;;;;;;;14.61;38.17;100561.78;5071951;28;20032;-67
2022/10/10 10:08:27;;;;;;;2.17;1.27;;;;;;;14.61;38.18;100561.78;5072115;28;20112;-68
2022/10/10 10:10:56;;;;;;;3.17;1.10;;;;;;;14.52;38.56;100558.03;5072106;28;20067;-68
2022/10/10 10:13:26;;;;;;;1.85;1.10;;;;;;;14.41;38.23;100544.63;5071515;28;20024;-67
2022/10/10 10:16:03;;;;;;;6.25;1.00;;;;;;;14.50;38.40;100560.88;5071448;28;20115;-68
2022/10/10 10:18:30;;;;;;;3.53;1.23;;;;;;;14.52;38.07;100559.88;5071872;28;20115;-66
2022/10/10 10:21:02;;;;;;;3.75;1.20;;;;;;;14.55;38.28;100567.69;5055248;28;20025;-67
2022/10/10 10:23:33;;;;;;;1.92;1.05;;;;;;;14.53;38.30;100562.44;5072617;28;20063;-67
2022/10/10 10:26:05;;;;;;;2.33;1.00;;;;;;;14.43;38.03;100553.44;5071732;28;20451;-68
2022/10/10 10:28:31;;;;;;;3.40;1.10;;;;;;;14.34;38.12;100549.69;5072500;28;20032;-67
2022/10/10 10:30:57;;;;;;;4.97;1.10;;;;;;;14.37;37.93;100570.97;5072620;28;20076;-67
2022/10/10 10:33:23;;;;;;;3.20;0.98;;;;;;;14.39;37.91;100562.75;5072105;28;20458;-67
2022/10/10 10:36:22;;;;;;;1.48;1.00;;;;;;;14.53;37.98;100558.88;5072309;28;20123;-68
2022/10/10 10:38:59;;;;;;;4.68;1.20;;;;;;;14.50;38.10;100570.78;5072163;28;20028;-66
2022/10/10 10:41:33;;;;;;;2.22;0.93;;;;;;;14.39;38.40;100536.66;5071276;28;20094;-67
2022/10/10 10:44:18;;;;;;;3.50;1.10;;;;;;;14.50;38.51;100565.38;5071489;28;20048;-66
2022/10/10 10:46:50;;;;;;;2.20;1.20;;;;;;;14.41;38.23;100564.31;5072245;28;20115;-68
2022/10/10 10:49:27;;;;;;;4.38;1.50;;;;;;;14.38;38.55;100574.53;5070734;28;20055;-66
2022/10/10 10:52:16;;;;;;;2.60;1.17;;;;;;;14.39;38.11;100568.16;5072118;28;20119;-68
2022/10/10 10:55:00;;;;;;;4.55;1.60;;;;;;;14.30;38.56;100569.78;5070635;28;20037;-66
2022/10/10 10:57:51;;;;;;;2.58;1.40;;;;;;;14.21;38.76;100572.25;5070390;28;20028;-68
2022/10/10 11:00:18;;;;;;;1.80;1.17;;;;;;;14.17;38.92;100578.03;5066540;28;20136;-67
2022/10/10 11:03:05;;;;;;;3.95;1.30;;;;;;;14.21;39.38;100569.56;5072335;28;20425;-66
2022/10/10 11:05:42;;;;;;;1.35;1.20;;;;;;;14.24;38.99;100576.53;5064557;28;20025;-67
2022/10/10 11:08:13;;;;;;;2.28;1.40;;;;;;;14.20;39.07;100578.63;5066318;28;20441;-67
2022/10/10 11:10:53;;;;;;;2.63;1.27;;;;;;;14.04;38.99;100570.16;5065757;28;20044;-68
2022/10/10 11:13:59;;;;;;;3.63;1.40;;;;;;;13.92;39.08;100567.47;5071683;28;20037;-68
2022/10/10 11:16:52;;;;;;;2.92;1.45;;;;;;;14.04;39.46;100565.59;5048265;28;20069;-68
2022/10/10 11:19:48;;;;;;;5.85;1.60;;;;;;;13.95;40.08;100573.59;5057804;28;20064;-68
2022/10/10 11:22:18;;;;;;;2.58;1.52;;;;;;;13.82;40.00;100561.16;5069265;28;20042;-68
2022/10/10 11:24:50;;;;;;;4.10;1.48;;;;;;;13.71;40.60;100562.03;5062966;28;20029;-69
2022/10/10 11:27:45;;;;;;;3.45;1.63;;;;;;;13.69;40.94;100571.22;5066060;28;20037;-68
2022/10/10 11:30:25;;;;;;;7.03;1.90;;;;;;;13.54;41.50;100531.16;5063748;28;20099;-68
2022/10/10 11:33:05;;;;;;;9.25;2.40;;;;;;;13.55;41.93;100567.81;5063228;28;20155;-69
2022/10/10 11:35:45;;;;;;;3.83;1.83;;;;;;;13.56;42.09;100566.84;5066853;28;20089;-67